sensor_id;sensor_type;location;lat;lon;timestamp;temperature;humidity
52765;DHT22;38650;44.536;18.664;2022-12-13T08:00:40;-0.40;99.90
52765;DHT22;38650;44.536;18.664;2022-12-13T08:03:06;-0.50;99.90
52765;DHT22;38650;44.536;18.664;2022-12-13T08:05:33;-0.30;99.90
52765;DHT22;38650;44.536;18.664;2022-12-13T08:08:00;0.00;99.90
52765;DHT22;38650;44.536;18.664;2022-12-13T08:10:28;0.30;99.90
52765;DHT22;38650;44.536;18.664;2022-12-13T08:12:54;0.60;99.90
52765;DHT22;38650;44.536;18.664;2022-12-13T08:15:20;0.90;99.90
52765;DHT22;38650;44.536;18.664;2022-12-13T08:17:46;1.30;99.90
52765;DHT22;38650;44.536;18.664;2022-12-13T08:20:12;1.60;99.90
52765;DHT22;38650;44.536;18.664;2022-12-13T08:22:38;1.70;99.90
52765;DHT22;38650;44.536;18.664;2022-12-13T08:25:05;2.00;99.90
52765;DHT22;38650;44.536;18.664;2022-12-13T08:27:32;2.20;99.90
52765;DHT22;38650;44.536;18.664;2022-12-13T08:30:10;2.40;99.90
52765;DHT22;38650;44.536;18.664;2022-12-13T08:32:36;2.70;99.90
52765;DHT22;38650;44.536;18.664;2022-12-13T08:35:02;2.80;99.90
52765;DHT22;38650;44.536;18.664;2022-12-13T08:37:30;2.80;99.90
52765;DHT22;38650;44.536;18.664;2022-12-13T08:39:56;2.70;99.90
52765;DHT22;38650;44.536;18.664;2022-12-13T08:42:22;2.60;99.90
52765;DHT22;38650;44.536;18.664;2022-12-13T08:44:50;2.60;99.90
52765;DHT22;38650;44.536;18.664;2022-12-13T08:47:22;2.60;99.90
52765;DHT22;38650;44.536;18.664;2022-12-13T08:49:48;2.60;99.90
52765;DHT22;38650;44.536;18.664;2022-12-13T08:52:16;2.60;99.90
52765;DHT22;38650;44.536;18.664;2022-12-13T08:54:41;2.70;99.90
52765;DHT22;38650;44.536;18.664;2022-12-13T08:57:09;2.60;99.90
52765;DHT22;38650;44.536;18.664;2022-12-13T08:59:34;2.70;99.90
52765;DHT22;38650;44.536;18.664;2022-12-13T09:02:00;2.80;99.90
52765;DHT22;38650;44.536;18.664;2022-12-13T09:04:26;2.80;99.90
52765;DHT22;38650;44.536;18.664;2022-12-13T09:06:52;3.00;99.90
52765;DHT22;38650;44.536;18.664;2022-12-13T09:09:18;3.10;99.90
52765;DHT22;38650;44.536;18.664;2022-12-13T09:11:44;3.20;99.90
52765;DHT22;38650;44.536;18.664;2022-12-13T09:14:09;3.30;99.90
52765;DHT22;38650;44.536;18.664;2022-12-13T09:16:35;3.40;99.90
52765;DHT22;38650;44.536;18.664;2022-12-13T09:19:02;3.50;99.90
52765;DHT22;38650;44.536;18.664;2022-12-13T09:21:29;3.50;99.90
52765;DHT22;38650;44.536;18.664;2022-12-13T09:23:54;3.50;99.90
52765;DHT22;38650;44.536;18.664;2022-12-13T09:26:20;3.60;99.90
52765;DHT22;38650;44.536;18.664;2022-12-13T09:28:49;3.60;99.90
52765;DHT22;38650;44.536;18.664;2022-12-13T09:31:19;3.50;99.90
52765;DHT22;38650;44.536;18.664;2022-12-13T09:33:45;3.60;99.90
52765;DHT22;38650;44.536;18.664;2022-12-13T09:36:13;3.80;99.90
52765;DHT22;38650;44.536;18.664;2022-12-13T09:38:40;4.00;99.90
52765;DHT22;38650;44.536;18.664;2022-12-13T09:44:25;4.00;99.90
52765;DHT22;38650;44.536;18.664;2022-12-13T09:46:51;4.10;99.90
52765;DHT22;38650;44.536;18.664;2022-12-13T09:49:27;4.10;99.90
52765;DHT22;38650;44.536;18.664;2022-12-13T09:51:57;4.20;99.90
52765;DHT22;38650;44.536;18.664;2022-12-13T09:54:54;4.30;99.90
52765;DHT22;38650;44.536;18.664;2022-12-13T09:57:53;4.30;99.90
52765;DHT22;38650;44.536;18.664;2022-12-13T10:03:23;4.60;99.90
52765;DHT22;38650;44.536;18.664;2022-12-13T10:06:17;4.50;99.90
52765;DHT22;38650;44.536;18.664;2022-12-13T10:08:56;4.60;99.90
52765;DHT22;38650;44.536;18.664;2022-12-13T10:11:22;4.80;99.90
52765;DHT22;38650;44.536;18.664;2022-12-13T10:14:05;4.90;99.10
52765;DHT22;38650;44.536;18.664;2022-12-13T10:16:39;4.80;97.80
52765;DHT22;38650;44.536;18.664;2022-12-13T10:21:53;5.00;99.90
52765;DHT22;38650;44.536;18.664;2022-12-13T10:24:30;5.10;98.10
52765;DHT22;38650;44.536;18.664;2022-12-13T10:27:14;5.10;98.60
52765;DHT22;38650;44.536;18.664;2022-12-13T10:30:08;5.30;94.80
52765;DHT22;38650;44.536;18.664;2022-12-13T10:32:55;5.40;93.80
52765;DHT22;38650;44.536;18.664;2022-12-13T10:37:48;5.50;85.30
52765;DHT22;38650;44.536;18.664;2022-12-13T10:43:15;5.60;82.20
52765;DHT22;38650;44.536;18.664;2022-12-13T10:46:04;5.90;82.50
52765;DHT22;38650;44.536;18.664;2022-12-13T10:51:14;6.20;71.90
52765;DHT22;38650;44.536;18.664;2022-12-13T10:53:55;6.30;72.30
52765;DHT22;38650;44.536;18.664;2022-12-13T10:56:32;6.40;70.30
52765;DHT22;38650;44.536;18.664;2022-12-13T11:01:42;6.40;68.50
52765;DHT22;38650;44.536;18.664;2022-12-13T11:04:27;6.40;71.10
52765;DHT22;38650;44.536;18.664;2022-12-13T11:06:55;6.40;70.80
52765;DHT22;38650;44.536;18.664;2022-12-13T11:09:32;6.40;70.80
52765;DHT22;38650;44.536;18.664;2022-12-13T11:12:24;6.50;68.80
52765;DHT22;38650;44.536;18.664;2022-12-13T11:14:54;6.50;71.40
52765;DHT22;38650;44.536;18.664;2022-12-13T11:17:23;6.70;69.30
52765;DHT22;38650;44.536;18.664;2022-12-13T11:23:27;6.50;63.10
52765;DHT22;38650;44.536;18.664;2022-12-13T11:25:57;6.20;62.80
52765;DHT22;38650;44.536;18.664;2022-12-13T11:37:17;6.10;62.40
52765;DHT22;38650;44.536;18.664;2022-12-13T11:39:51;6.00;62.70
52765;DHT22;38650;44.536;18.664;2022-12-13T11:50:30;6.00;63.90
52765;DHT22;38650;44.536;18.664;2022-12-13T11:56:10;6.00;62.90
52765;DHT22;38650;44.536;18.664;2022-12-13T11:59:01;5.90;62.50
52765;DHT22;38650;44.536;18.664;2022-12-13T12:01:41;5.60;61.50
52765;DHT22;38650;44.536;18.664;2022-12-13T12:04:51;5.50;61.00
52765;DHT22;38650;44.536;18.664;2022-12-13T12:10:29;5.50;64.70
52765;DHT22;38650;44.536;18.664;2022-12-13T12:13:03;5.50;61.90
52765;DHT22;38650;44.536;18.664;2022-12-13T12:15:40;5.60;65.20
52765;DHT22;38650;44.536;18.664;2022-12-13T12:18:13;5.60;61.60
52765;DHT22;38650;44.536;18.664;2022-12-13T12:21:34;5.50;62.50
52765;DHT22;38650;44.536;18.664;2022-12-13T12:26:23;5.50;58.90
52765;DHT22;38650;44.536;18.664;2022-12-13T12:43:36;5.20;61.60
52765;DHT22;38650;44.536;18.664;2022-12-13T12:46:39;5.20;62.50
52765;DHT22;38650;44.536;18.664;2022-12-13T12:52:47;5.20;64.00
52765;DHT22;38650;44.536;18.664;2022-12-13T12:55:50;5.20;67.20
52765;DHT22;38650;44.536;18.664;2022-12-13T13:03:52;5.20;63.90
52765;DHT22;38650;44.536;18.664;2022-12-13T13:06:24;5.20;62.40
52765;DHT22;38650;44.536;18.664;2022-12-13T13:08:57;5.10;64.00
52765;DHT22;38650;44.536;18.664;2022-12-13T13:11:29;5.20;66.10
52765;DHT22;38650;44.536;18.664;2022-12-13T13:14:07;5.20;64.30
52765;DHT22;38650;44.536;18.664;2022-12-13T13:16:46;5.20;65.20
52765;DHT22;38650;44.536;18.664;2022-12-13T13:21:50;5.20;68.00
52765;DHT22;38650;44.536;18.664;2022-12-13T13:24:23;5.30;68.50
52765;DHT22;38650;44.536;18.664;2022-12-13T13:29:28;5.30;70.00
52765;DHT22;38650;44.536;18.664;2022-12-13T13:34:46;5.30;69.10
52765;DHT22;38650;44.536;18.664;2022-12-13T13:43:11;5.40;69.40
52765;DHT22;38650;44.536;18.664;2022-12-13T13:45:57;5.40;69.80
52765;DHT22;38650;44.536;18.664;2022-12-13T13:48:39;5.30;68.60
52765;DHT22;38650;44.536;18.664;2022-12-13T13:54:05;5.30;67.70
52765;DHT22;38650;44.536;18.664;2022-12-13T14:24:26;5.00;76.00
52765;DHT22;38650;44.536;18.664;2022-12-13T14:29:37;5.00;83.30
52765;DHT22;38650;44.536;18.664;2022-12-13T14:32:08;5.10;88.90
52765;DHT22;38650;44.536;18.664;2022-12-13T14:34:43;5.00;80.80
52765;DHT22;38650;44.536;18.664;2022-12-13T14:37:39;5.00;83.70
52765;DHT22;38650;44.536;18.664;2022-12-13T14:42:51;5.00;82.40
52765;DHT22;38650;44.536;18.664;2022-12-13T14:48:02;4.90;79.70
52765;DHT22;38650;44.536;18.664;2022-12-13T14:50:32;4.80;81.30
52765;DHT22;38650;44.536;18.664;2022-12-13T14:52:59;4.70;82.10
52765;DHT22;38650;44.536;18.664;2022-12-13T14:55:32;4.80;87.50
52765;DHT22;38650;44.536;18.664;2022-12-13T14:58:02;4.80;91.30
52765;DHT22;38650;44.536;18.664;2022-12-13T15:00:33;4.80;85.90
52765;DHT22;38650;44.536;18.664;2022-12-13T15:03:01;4.80;89.70
52765;DHT22;38650;44.536;18.664;2022-12-13T15:07:59;4.70;91.20
52765;DHT22;38650;44.536;18.664;2022-12-13T15:10:38;4.70;86.40
52765;DHT22;38650;44.536;18.664;2022-12-13T15:13:05;4.70;84.50
52765;DHT22;38650;44.536;18.664;2022-12-13T15:15:37;4.60;87.60
52765;DHT22;38650;44.536;18.664;2022-12-13T15:20:40;4.60;88.60
52765;DHT22;38650;44.536;18.664;2022-12-13T15:23:37;4.60;85.70
52765;DHT22;38650;44.536;18.664;2022-12-13T15:26:15;4.60;90.10
52765;DHT22;38650;44.536;18.664;2022-12-13T15:28:43;4.60;90.50
52765;DHT22;38650;44.536;18.664;2022-12-13T15:31:10;4.70;89.50
52765;DHT22;38650;44.536;18.664;2022-12-13T15:33:37;4.70;90.30
52765;DHT22;38650;44.536;18.664;2022-12-13T15:41:27;4.60;88.30
52765;DHT22;38650;44.536;18.664;2022-12-13T15:44:00;4.50;90.10
52765;DHT22;38650;44.536;18.664;2022-12-13T15:46:32;4.50;94.50
52765;DHT22;38650;44.536;18.664;2022-12-13T15:49:01;4.30;96.10
52765;DHT22;38650;44.536;18.664;2022-12-13T15:51:27;4.20;95.30
52765;DHT22;38650;44.536;18.664;2022-12-13T15:54:18;4.10;97.30
52765;DHT22;38650;44.536;18.664;2022-12-13T15:57:27;4.00;98.30
52765;DHT22;38650;44.536;18.664;2022-12-13T16:02:29;3.90;99.90
52765;DHT22;38650;44.536;18.664;2022-12-13T16:05:07;4.00;99.90
52765;DHT22;38650;44.536;18.664;2022-12-13T16:07:34;4.00;99.70
52765;DHT22;38650;44.536;18.664;2022-12-13T16:10:02;4.00;99.00
52765;DHT22;38650;44.536;18.664;2022-12-13T16:12:40;4.00;99.90
52765;DHT22;38650;44.536;18.664;2022-12-13T16:17:49;4.00;99.90
52765;DHT22;38650;44.536;18.664;2022-12-13T16:20:16;4.00;99.90
52765;DHT22;38650;44.536;18.664;2022-12-13T16:22:42;4.00;99.90
52765;DHT22;38650;44.536;18.664;2022-12-13T16:25:12;4.00;99.90
52765;DHT22;38650;44.536;18.664;2022-12-13T16:27:39;4.10;99.90
52765;DHT22;38650;44.536;18.664;2022-12-13T16:30:12;4.00;99.40
52765;DHT22;38650;44.536;18.664;2022-12-13T16:32:39;3.80;99.90
52765;DHT22;38650;44.536;18.664;2022-12-13T16:35:06;3.90;99.90
52765;DHT22;38650;44.536;18.664;2022-12-13T16:37:31;3.90;99.90
52765;DHT22;38650;44.536;18.664;2022-12-13T16:39:57;3.80;99.90
52765;DHT22;38650;44.536;18.664;2022-12-13T16:42:26;3.80;99.90
52765;DHT22;38650;44.536;18.664;2022-12-13T16:44:52;3.90;99.90
52765;DHT22;38650;44.536;18.664;2022-12-13T16:47:18;3.90;99.90
52765;DHT22;38650;44.536;18.664;2022-12-13T16:49:47;3.90;99.90
52765;DHT22;38650;44.536;18.664;2022-12-13T16:52:15;3.90;99.60
52765;DHT22;38650;44.536;18.664;2022-12-13T16:54:43;3.90;99.90
52765;DHT22;38650;44.536;18.664;2022-12-13T16:57:09;3.90;99.90
52765;DHT22;38650;44.536;18.664;2022-12-13T16:59:34;3.90;99.90
52765;DHT22;38650;44.536;18.664;2022-12-13T17:02:00;3.90;98.40
52765;DHT22;38650;44.536;18.664;2022-12-13T17:04:26;3.80;99.50
52765;DHT22;38650;44.536;18.664;2022-12-13T17:06:51;3.80;99.90
52765;DHT22;38650;44.536;18.664;2022-12-13T17:09:17;3.90;99.90
52765;DHT22;38650;44.536;18.664;2022-12-13T17:11:44;3.80;99.90
52765;DHT22;38650;44.536;18.664;2022-12-13T17:14:09;3.80;99.90
52765;DHT22;38650;44.536;18.664;2022-12-13T17:16:35;3.80;99.90
52765;DHT22;38650;44.536;18.664;2022-12-13T17:19:01;3.90;99.90
52765;DHT22;38650;44.536;18.664;2022-12-13T17:21:27;3.90;99.90
52765;DHT22;38650;44.536;18.664;2022-12-13T17:23:57;3.80;99.90
52765;DHT22;38650;44.536;18.664;2022-12-13T17:26:24;3.80;99.90
52765;DHT22;38650;44.536;18.664;2022-12-13T17:28:50;3.90;99.90
52765;DHT22;38650;44.536;18.664;2022-12-13T17:31:16;3.80;99.90
52765;DHT22;38650;44.536;18.664;2022-12-13T17:33:42;3.70;99.90
52765;DHT22;38650;44.536;18.664;2022-12-13T17:36:09;3.60;99.90
52765;DHT22;38650;44.536;18.664;2022-12-13T17:38:36;3.70;99.90
52765;DHT22;38650;44.536;18.664;2022-12-13T17:41:02;3.80;99.90
52765;DHT22;38650;44.536;18.664;2022-12-13T17:43:28;4.00;99.90
52765;DHT22;38650;44.536;18.664;2022-12-13T17:46:02;4.00;99.90
52765;DHT22;38650;44.536;18.664;2022-12-13T17:48:28;4.10;99.90
52765;DHT22;38650;44.536;18.664;2022-12-13T17:50:54;4.10;99.90
52765;DHT22;38650;44.536;18.664;2022-12-13T17:53:21;4.00;99.90
52765;DHT22;38650;44.536;18.664;2022-12-13T17:55:58;3.90;99.30
52765;DHT22;38650;44.536;18.664;2022-12-13T17:58:25;3.90;99.90
52765;DHT22;38650;44.536;18.664;2022-12-13T18:00:51;3.90;99.90
52765;DHT22;38650;44.536;18.664;2022-12-13T18:03:18;4.00;99.90
52765;DHT22;38650;44.536;18.664;2022-12-13T18:05:44;3.90;99.90
52765;DHT22;38650;44.536;18.664;2022-12-13T18:08:10;3.90;99.90
52765;DHT22;38650;44.536;18.664;2022-12-13T18:10:36;4.00;99.90
52765;DHT22;38650;44.536;18.664;2022-12-13T18:13:01;4.00;99.90
52765;DHT22;38650;44.536;18.664;2022-12-13T18:15:27;4.00;99.90
52765;DHT22;38650;44.536;18.664;2022-12-13T18:17:55;3.90;99.90
52765;DHT22;38650;44.536;18.664;2022-12-13T18:20:21;3.80;99.90
52765;DHT22;38650;44.536;18.664;2022-12-13T18:22:47;3.70;99.90
52765;DHT22;38650;44.536;18.664;2022-12-13T18:25:13;3.70;99.90
52765;DHT22;38650;44.536;18.664;2022-12-13T18:27:39;3.70;99.90
52765;DHT22;38650;44.536;18.664;2022-12-13T18:30:05;3.70;99.90
52765;DHT22;38650;44.536;18.664;2022-12-13T18:32:31;3.60;99.90
52765;DHT22;38650;44.536;18.664;2022-12-13T18:34:56;3.50;99.90
52765;DHT22;38650;44.536;18.664;2022-12-13T18:37:22;3.50;99.90
52765;DHT22;38650;44.536;18.664;2022-12-13T18:39:48;3.60;99.90
52765;DHT22;38650;44.536;18.664;2022-12-13T18:42:13;3.60;99.90
52765;DHT22;38650;44.536;18.664;2022-12-13T18:44:39;3.70;99.90
52765;DHT22;38650;44.536;18.664;2022-12-13T18:47:04;3.70;99.90
52765;DHT22;38650;44.536;18.664;2022-12-13T18:49:30;3.70;99.90
52765;DHT22;38650;44.536;18.664;2022-12-13T18:51:56;3.70;99.90
52765;DHT22;38650;44.536;18.664;2022-12-13T18:54:21;3.70;99.90
52765;DHT22;38650;44.536;18.664;2022-12-13T18:56:47;3.80;99.90
52765;DHT22;38650;44.536;18.664;2022-12-13T18:59:13;3.80;99.90
52765;DHT22;38650;44.536;18.664;2022-12-13T19:01:38;3.90;99.90
52765;DHT22;38650;44.536;18.664;2022-12-13T19:04:04;4.00;99.90
52765;DHT22;38650;44.536;18.664;2022-12-13T19:06:30;3.90;99.90
52765;DHT22;38650;44.536;18.664;2022-12-13T19:08:56;3.90;99.90
52765;DHT22;38650;44.536;18.664;2022-12-13T19:11:23;3.80;99.90
52765;DHT22;38650;44.536;18.664;2022-12-13T19:13:50;3.80;99.90
